createdAt,value
2022-09-27T00:01:54.638Z,101162.66
2022-09-27T00:04:21.500Z,101163.25
2022-09-27T00:06:48.494Z,101177.00
2022-09-27T00:09:15.418Z,101181.13
2022-09-27T00:11:43.006Z,101174.06
2022-09-27T00:14:12.870Z,101179.09
2022-09-27T00:16:41.194Z,101176.38
2022-09-27T00:19:20.211Z,101165.88
2022-09-27T00:21:47.274Z,101163.91
2022-09-27T00:24:16.001Z,101149.63
2022-09-27T00:26:43.409Z,101148.28
2022-09-27T00:29:11.031Z,101155.34
2022-09-27T00:31:38.533Z,101144.97
2022-09-27T00:34:07.057Z,101143.03
2022-09-27T00:36:34.734Z,101136.91
2022-09-27T00:39:02.226Z,101138.00
2022-09-27T00:41:32.450Z,101141.63
2022-09-27T00:44:22.496Z,101141.66
2022-09-27T00:47:11.553Z,101152.63
2022-09-27T00:49:42.898Z,101152.00
2022-09-27T00:52:15.480Z,101165.25
2022-09-27T00:54:47.185Z,101157.72
2022-09-27T00:57:14.034Z,101156.72
2022-09-27T00:59:48.096Z,101148.72
2022-09-27T01:02:15.344Z,101145.25
2022-09-27T01:04:43.818Z,101133.84
2022-09-27T01:07:10.820Z,101124.91
2022-09-27T01:09:38.185Z,101116.97
2022-09-27T01:12:46.439Z,101118.81
2022-09-27T01:16:07.379Z,101117.44
2022-09-27T01:19:09.275Z,101115.34
2022-09-27T01:21:45.180Z,101112.13
2022-09-27T01:24:25.120Z,101107.34
2022-09-27T01:27:16.537Z,101101.50
2022-09-27T01:30:21.783Z,101107.84
2022-09-27T01:33:07.669Z,101096.88
2022-09-27T01:35:45.924Z,101098.84
2022-09-27T01:38:34.372Z,101099.91
2022-09-27T01:41:12.888Z,101101.13
2022-09-27T01:43:53.706Z,101098.72
2022-09-27T01:46:28.405Z,101089.41
2022-09-27T01:48:59.125Z,101087.13
2022-09-27T01:51:35.742Z,101084.78
2022-09-27T01:54:05.656Z,101083.06
2022-09-27T01:56:49.150Z,101083.16
2022-09-27T01:59:22.691Z,101071.06
2022-09-27T02:01:52.560Z,101070.44
2022-09-27T02:04:26.974Z,101079.81
2022-09-27T02:07:01.143Z,101064.13
2022-09-27T02:09:33.608Z,101064.53
2022-09-27T02:12:06.391Z,101065.78
2022-09-27T02:14:41.739Z,101061.72
2022-09-27T02:17:20.814Z,101062.91
2022-09-27T02:19:50.482Z,101052.78
2022-09-27T02:22:22.282Z,101042.56
2022-09-27T02:24:55.367Z,101037.88
2022-09-27T02:27:30.312Z,101015.97
2022-09-27T02:30:13.069Z,101028.66
2022-09-27T02:32:40.884Z,101024.69
2022-09-27T02:35:14.126Z,101027.16
2022-09-27T02:37:41.286Z,101019.94
2022-09-27T02:40:08.630Z,101016.56
2022-09-27T02:42:35.726Z,101015.88
2022-09-27T02:45:05.745Z,101018.06
2022-09-27T02:47:51.020Z,101004.50
2022-09-27T02:50:18.680Z,100998.16
2022-09-27T02:53:13.535Z,100992.91
2022-09-27T02:56:04.292Z,101009.41
2022-09-27T02:58:43.326Z,101008.66
2022-09-27T03:01:39.424Z,101002.44
2022-09-27T03:04:17.653Z,101001.78
2022-09-27T03:06:47.522Z,100993.06
2022-09-27T03:09:22.515Z,100988.41
2022-09-27T03:11:49.647Z,100978.97
2022-09-27T03:14:17.059Z,100974.09
2022-09-27T03:16:44.001Z,100976.47
2022-09-27T03:19:11.061Z,100979.97
2022-09-27T03:21:38.095Z,100973.50
2022-09-27T03:24:05.254Z,100975.56
2022-09-27T03:26:32.143Z,100973.41
2022-09-27T03:28:59.135Z,100973.91
2022-09-27T03:31:26.126Z,100970.16
2022-09-27T03:33:53.028Z,100968.09
2022-09-27T03:36:19.864Z,100967.72
2022-09-27T03:38:46.765Z,100961.41
2022-09-27T03:41:13.662Z,100964.03
2022-09-27T03:43:40.543Z,100963.69
2022-09-27T03:46:07.561Z,100960.00
2022-09-27T03:48:34.701Z,100963.19
2022-09-27T03:51:01.739Z,100956.91
2022-09-27T03:53:28.682Z,100918.34
2022-09-27T03:55:56.139Z,100952.66
2022-09-27T03:58:22.984Z,100950.69
2022-09-27T04:00:49.774Z,100937.22
2022-09-27T04:03:17.807Z,100928.31
2022-09-27T04:05:44.699Z,100926.13
2022-09-27T04:08:12.154Z,100925.94
2022-09-27T04:10:39.092Z,100916.78
2022-09-27T04:13:06.252Z,100920.25
2022-09-27T04:15:33.183Z,100922.69
2022-09-27T04:18:00.130Z,100922.59
2022-09-27T04:20:27.004Z,100912.91
2022-09-27T04:22:53.815Z,100905.56
2022-09-27T04:25:20.677Z,100909.03
2022-09-27T04:27:48.480Z,100893.13
2022-09-27T04:30:15.958Z,100892.94
2022-09-27T04:32:44.316Z,100887.47
2022-09-27T04:35:31.121Z,100895.91
2022-09-27T04:37:58.285Z,100890.47
2022-09-27T04:40:25.361Z,100882.34
2022-09-27T04:42:52.935Z,100885.59
2022-09-27T04:45:20.602Z,100886.38
2022-09-27T04:47:49.838Z,100885.00
2022-09-27T04:50:17.910Z,100891.75
2022-09-27T04:52:44.957Z,100881.84
2022-09-27T04:55:11.852Z,100899.53
2022-09-27T04:57:38.760Z,100892.38
2022-09-27T05:00:06.318Z,100888.81
2022-09-27T05:02:33.240Z,100877.63
2022-09-27T05:05:00.816Z,100889.09
2022-09-27T05:07:28.833Z,100884.81
2022-09-27T05:09:56.902Z,100881.31
2022-09-27T05:12:27.082Z,100885.63
2022-09-27T05:14:54.590Z,100880.72
2022-09-27T05:17:22.547Z,100875.31
2022-09-27T05:19:50.411Z,100875.56
2022-09-27T05:22:17.876Z,100876.09
2022-09-27T05:24:44.873Z,100871.34
2022-09-27T05:27:17.136Z,100872.81
2022-09-27T05:29:44.750Z,100861.25
2022-09-27T05:32:11.759Z,100868.06
2022-09-27T05:34:38.947Z,100867.97
2022-09-27T05:37:05.993Z,100881.03
2022-09-27T05:39:32.937Z,100876.59
2022-09-27T05:41:59.875Z,100882.63
2022-09-27T05:44:26.774Z,100862.50
2022-09-27T05:46:53.722Z,100874.63
2022-09-27T05:49:20.833Z,100865.97
2022-09-27T05:51:47.815Z,100865.22
2022-09-27T05:54:14.913Z,100868.94
2022-09-27T05:56:41.910Z,100865.44
2022-09-27T05:59:08.969Z,100861.97
2022-09-27T06:01:36.079Z,100854.06
2022-09-27T06:04:05.973Z,100863.25
2022-09-27T06:06:36.047Z,100855.56
2022-09-27T06:09:03.093Z,100851.56
2022-09-27T06:11:30.092Z,100855.63
2022-09-27T06:13:57.758Z,100853.50
2022-09-27T06:16:24.742Z,100861.94
2022-09-27T06:18:52.467Z,100859.81
2022-09-27T06:21:19.518Z,100852.44
2022-09-27T06:23:50.677Z,100855.56
2022-09-27T06:26:22.250Z,100854.09
2022-09-27T06:28:49.501Z,100854.41
2022-09-27T06:31:16.674Z,100854.63
2022-09-27T06:33:43.645Z,100863.75
2022-09-27T06:36:10.655Z,100867.25
2022-09-27T06:38:38.467Z,100862.09
2022-09-27T06:41:13.595Z,100857.13
2022-09-27T06:43:40.337Z,100866.63
2022-09-27T06:46:07.339Z,100865.00
2022-09-27T06:48:37.859Z,100855.41
2022-09-27T06:51:05.481Z,100850.38
2022-09-27T06:53:32.321Z,100851.31
2022-09-27T06:56:03.068Z,100850.59
2022-09-27T06:58:48.484Z,100836.69
2022-09-27T07:01:15.831Z,100835.97
2022-09-27T07:03:43.402Z,100831.63
2022-09-27T07:06:20.587Z,100832.56
2022-09-27T07:08:52.332Z,100824.91
2022-09-27T07:11:20.149Z,100823.28
2022-09-27T07:13:46.951Z,100831.28
2022-09-27T07:16:16.788Z,100836.53
2022-09-27T07:18:43.952Z,100826.97
2022-09-27T07:21:12.750Z,100833.19
2022-09-27T07:23:39.897Z,100830.53
2022-09-27T07:26:08.585Z,100828.84
2022-09-27T07:28:35.530Z,100833.38
2022-09-27T07:31:03.689Z,100832.44
2022-09-27T07:33:32.229Z,100831.47
2022-09-27T07:35:59.121Z,100840.31
2022-09-27T07:38:26.023Z,100835.06
2022-09-27T07:40:53.265Z,100836.09
2022-09-27T07:43:20.846Z,100835.44
2022-09-27T07:45:47.898Z,100837.44
2022-09-27T07:48:16.621Z,100841.22
2022-09-27T07:50:44.235Z,100828.91
2022-09-27T07:53:13.590Z,100831.09
2022-09-27T07:55:41.092Z,100845.56
2022-09-27T07:58:10.907Z,100836.31
2022-09-27T08:00:41.099Z,100835.56
2022-09-27T08:03:10.878Z,100847.19
2022-09-27T08:05:38.031Z,100849.06
2022-09-27T08:08:05.639Z,100846.72
2022-09-27T08:10:33.913Z,100832.13
2022-09-27T08:13:05.109Z,100849.47
2022-09-27T08:15:33.136Z,100840.66
2022-09-27T08:17:59.973Z,100840.66
2022-09-27T08:20:26.824Z,100837.56
2022-09-27T08:22:54.080Z,100835.00
2022-09-27T08:25:24.560Z,100838.50
2022-09-27T08:27:58.990Z,100848.53
2022-09-27T08:30:27.001Z,100840.09
2022-09-27T08:32:57.767Z,100842.16
2022-09-27T08:35:24.917Z,100826.13
2022-09-27T08:38:00.076Z,100844.41
2022-09-27T08:40:59.497Z,100830.53
2022-09-27T08:43:34.655Z,100824.91
2022-09-27T08:46:31.189Z,100841.22
2022-09-27T08:49:11.187Z,100830.16
2022-09-27T08:51:40.080Z,100829.88
2022-09-27T08:54:30.301Z,100829.06
2022-09-27T08:57:07.505Z,100816.94
2022-09-27T08:59:47.351Z,100817.59
2022-09-27T09:02:19.427Z,100831.56
2022-09-27T09:04:49.497Z,100828.66
2022-09-27T09:07:46.485Z,100819.84
2022-09-27T09:10:39.543Z,100827.63
2022-09-27T09:13:39.160Z,100832.75
2022-09-27T09:16:33.632Z,100834.47
2022-09-27T09:19:58.599Z,100839.81
2022-09-27T09:22:40.969Z,100844.22
2022-09-27T09:25:35.549Z,100834.66
2022-09-27T09:28:25.226Z,100826.69
2022-09-27T09:31:06.961Z,100830.59
2022-09-27T09:33:44.617Z,100820.88
2022-09-27T09:36:44.537Z,100823.50
2022-09-27T09:39:14.085Z,100826.69
2022-09-27T09:42:19.849Z,100830.97
2022-09-27T09:44:55.851Z,100823.75
2022-09-27T09:47:43.778Z,100826.22
2022-09-27T09:50:22.304Z,100823.31
2022-09-27T09:52:54.682Z,100825.53
2022-09-27T09:55:28.945Z,100823.59
2022-09-27T09:57:58.755Z,100828.66
2022-09-27T10:00:25.759Z,100822.66
2022-09-27T10:02:55.624Z,100817.50
2022-09-27T10:05:24.723Z,100815.59
2022-09-27T10:07:54.524Z,100805.56
2022-09-27T10:10:22.285Z,100812.09
2022-09-27T10:12:50.213Z,100812.84
2022-09-27T10:15:26.166Z,100812.47
2022-09-27T10:17:56.605Z,100807.94
2022-09-27T10:20:32.960Z,100800.59
2022-09-27T10:23:14.399Z,100805.13
2022-09-27T10:25:47.275Z,100796.38
2022-09-27T10:28:48.368Z,100798.91
2022-09-27T10:31:19.670Z,100782.09
2022-09-27T10:33:55.208Z,100784.81
2022-09-27T10:36:31.080Z,100751.75
2022-09-27T10:39:04.926Z,100763.38
2022-09-27T10:41:32.899Z,100771.91
2022-09-27T10:44:18.388Z,100767.09
2022-09-27T10:46:49.567Z,100765.09
2022-09-27T10:49:19.837Z,100766.16
2022-09-27T10:51:51.705Z,100762.91
2022-09-27T10:54:37.599Z,100760.63
2022-09-27T10:57:20.507Z,100747.06
2022-09-27T10:59:56.314Z,100743.59
2022-09-27T11:02:40.111Z,100739.16
2022-09-27T11:05:15.337Z,100742.75
2022-09-27T11:07:52.986Z,100730.00
2022-09-27T11:10:39.640Z,100724.53
2022-09-27T11:13:14.726Z,100722.41
2022-09-27T11:15:53.523Z,100714.41
2022-09-27T11:18:26.282Z,100709.78
2022-09-27T11:21:10.035Z,100709.56
2022-09-27T11:24:09.461Z,100712.50
2022-09-27T11:26:51.735Z,100703.03
2022-09-27T11:29:56.165Z,100699.97
2022-09-27T11:32:25.734Z,100698.78
2022-09-27T11:35:14.262Z,100696.09
2022-09-27T11:38:06.296Z,100694.59
2022-09-27T11:40:52.083Z,100687.31
2022-09-27T11:43:55.436Z,100691.22
2022-09-27T11:46:42.184Z,100687.41
2022-09-27T11:49:28.335Z,100686.03
2022-09-27T11:52:28.104Z,100679.13
2022-09-27T11:55:16.199Z,100683.22
2022-09-27T11:58:08.589Z,100672.69
2022-09-27T12:00:49.300Z,100671.56
2022-09-27T12:03:37.597Z,100667.88
2022-09-27T12:06:13.505Z,100657.00
2022-09-27T12:08:51.556Z,100655.22
2022-09-27T12:11:33.044Z,100642.34
2022-09-27T12:14:03.057Z,100644.13
2022-09-27T12:16:32.313Z,100640.81
2022-09-27T12:19:02.172Z,100624.56
2022-09-27T12:21:33.166Z,100617.88
2022-09-27T12:24:02.006Z,100620.53
2022-09-27T12:26:36.787Z,100612.91
2022-09-27T12:29:22.426Z,100616.03
2022-09-27T12:32:26.379Z,100604.41
2022-09-27T12:35:31.009Z,100599.97
2022-09-27T12:38:23.398Z,100591.03
2022-09-27T12:40:55.763Z,100593.09
2022-09-27T12:43:32.246Z,100597.66
2022-09-27T12:46:32.260Z,100585.88
2022-09-27T12:49:42.568Z,100581.94
2022-09-27T12:52:23.294Z,100580.78
2022-09-27T12:55:11.630Z,100574.56
2022-09-27T12:57:41.300Z,100581.50
2022-09-27T13:00:24.405Z,100563.03
2022-09-27T13:03:36.264Z,100566.03
2022-09-27T13:06:28.754Z,100565.81
2022-09-27T13:09:40.610Z,100557.91
2022-09-27T13:12:13.344Z,100555.97
2022-09-27T13:15:07.788Z,100561.47
2022-09-27T13:17:48.951Z,100549.84
2022-09-27T13:20:34.327Z,100542.78
2022-09-27T13:23:24.989Z,100530.56
2022-09-27T13:26:00.373Z,100530.81
2022-09-27T13:28:31.855Z,100534.63
2022-09-27T13:31:00.096Z,100529.59
2022-09-27T13:33:34.931Z,100521.44
2022-09-27T13:36:07.908Z,100507.91
2022-09-27T13:38:35.023Z,100511.25
2022-09-27T13:41:20.033Z,100509.22
2022-09-27T13:44:08.647Z,100503.56
2022-09-27T13:46:37.184Z,100499.22
2022-09-27T13:49:17.242Z,100491.31
2022-09-27T13:51:50.363Z,100490.66
2022-09-27T13:54:40.404Z,100488.81
2022-09-27T13:57:45.957Z,100476.19
2022-09-27T14:00:22.993Z,100478.41
2022-09-27T14:03:17.529Z,100476.53
2022-09-27T14:05:58.529Z,100466.00
2022-09-27T14:08:44.433Z,100468.66
2022-09-27T14:11:14.051Z,100469.88
2022-09-27T14:13:42.983Z,100470.69
2022-09-27T14:16:16.234Z,100474.69
2022-09-27T14:18:57.815Z,100467.53
2022-09-27T14:21:30.339Z,100460.69
2022-09-27T14:24:21.606Z,100460.22
2022-09-27T14:26:50.035Z,100464.69
2022-09-27T14:29:22.767Z,100463.16
2022-09-27T14:32:16.490Z,100461.00
2022-09-27T14:34:43.490Z,100466.75
2022-09-27T14:37:24.228Z,100461.00
2022-09-27T14:39:57.397Z,100460.06
2022-09-27T14:42:27.364Z,100460.28
2022-09-27T14:45:00.209Z,100462.69
2022-09-27T14:47:28.517Z,100448.50
2022-09-27T14:49:57.403Z,100446.50
2022-09-27T14:52:32.190Z,100444.09
2022-09-27T14:55:13.983Z,100447.78
2022-09-27T14:57:52.859Z,100445.97
2022-09-27T15:00:26.417Z,100442.25
2022-09-27T15:02:55.669Z,100433.25
2022-09-27T15:05:28.342Z,100426.31
2022-09-27T15:07:59.095Z,100418.75
2022-09-27T15:10:31.595Z,100421.63
2022-09-27T15:13:01.690Z,100428.22
2022-09-27T15:15:36.762Z,100426.91
2022-09-27T15:18:04.778Z,100427.38
2022-09-27T15:20:35.464Z,100423.22
2022-09-27T15:23:05.989Z,100424.41
2022-09-27T15:25:44.100Z,100419.00
2022-09-27T15:28:19.946Z,100422.88
2022-09-27T15:30:57.655Z,100421.19
2022-09-27T15:33:32.059Z,100420.59
2022-09-27T15:36:15.910Z,100422.28
2022-09-27T15:38:49.102Z,100430.19
2022-09-27T15:41:23.018Z,100425.28
2022-09-27T15:43:52.769Z,100418.41
2022-09-27T15:46:22.929Z,100417.94
2022-09-27T15:49:18.048Z,100418.91
2022-09-27T15:51:46.827Z,100422.25
2022-09-27T15:54:13.674Z,100418.44
2022-09-27T15:56:40.664Z,100426.59
2022-09-27T15:59:23.186Z,100419.78
2022-09-27T16:01:52.873Z,100423.72
2022-09-27T16:04:19.783Z,100419.44
2022-09-27T16:06:46.723Z,100419.44
2022-09-27T16:09:21.308Z,100420.38
2022-09-27T16:11:49.880Z,100421.47
2022-09-27T16:14:18.823Z,100429.03
2022-09-27T16:17:03.993Z,100426.28
2022-09-27T16:19:30.937Z,100431.56
2022-09-27T16:21:57.848Z,100433.25
2022-09-27T16:24:25.681Z,100429.28
2022-09-27T16:26:52.594Z,100427.88
2022-09-27T16:29:19.411Z,100436.22
2022-09-27T16:31:46.773Z,100436.72
2022-09-27T16:34:14.088Z,100437.91
2022-09-27T16:36:41.347Z,100445.09
2022-09-27T16:39:12.952Z,100439.22
2022-09-27T16:41:43.753Z,100438.25
2022-09-27T16:44:13.403Z,100439.44
2022-09-27T16:46:41.777Z,100437.66
2022-09-27T16:49:29.102Z,100439.16
2022-09-27T16:52:02.317Z,100445.53
2022-09-27T16:54:29.900Z,100447.16
2022-09-27T16:56:58.486Z,100451.31
2022-09-27T16:59:25.734Z,100447.59
2022-09-27T17:01:57.376Z,100444.69
2022-09-27T17:04:28.471Z,100449.69
2022-09-27T17:06:56.090Z,100439.81
2022-09-27T17:09:23.296Z,100460.84
2022-09-27T17:11:51.166Z,100463.63
2022-09-27T17:14:18.409Z,100464.88
2022-09-27T17:16:47.421Z,100460.69
2022-09-27T17:19:15.213Z,100458.28
2022-09-27T17:21:42.675Z,100475.22
2022-09-27T17:24:10.083Z,100477.13
2022-09-27T17:26:37.591Z,100474.63
2022-09-27T17:29:04.752Z,100479.13
2022-09-27T17:31:34.863Z,100475.97
2022-09-27T17:34:03.041Z,100477.16
2022-09-27T17:36:37.656Z,100480.59
2022-09-27T17:39:05.319Z,100481.69
2022-09-27T17:41:39.591Z,100484.53
2022-09-27T17:44:07.658Z,100474.97
2022-09-27T17:46:36.958Z,100476.00
2022-09-27T17:49:22.856Z,100486.63
2022-09-27T17:51:52.259Z,100491.16
2022-09-27T17:54:21.915Z,100494.72
2022-09-27T17:56:49.582Z,100500.22
2022-09-27T17:59:17.850Z,100497.69
2022-09-27T18:01:46.127Z,100504.00
2022-09-27T18:04:15.945Z,100494.66
2022-09-27T18:06:46.385Z,100505.06
2022-09-27T18:09:16.547Z,100517.22
2022-09-27T18:11:45.117Z,100525.22
2022-09-27T18:14:12.562Z,100524.28
2022-09-27T18:16:45.909Z,100526.91
2022-09-27T18:19:15.377Z,100524.38
2022-09-27T18:21:42.583Z,100538.34
2022-09-27T18:24:11.031Z,100543.63
2022-09-27T18:26:39.241Z,100540.97
2022-09-27T18:29:14.810Z,100545.50
2022-09-27T18:31:47.973Z,100542.16
2022-09-27T18:34:16.928Z,100539.84
2022-09-27T18:36:44.863Z,100551.19
2022-09-27T18:39:16.066Z,100554.66
2022-09-27T18:41:43.271Z,100554.75
2022-09-27T18:44:12.681Z,100558.31
2022-09-27T18:46:39.753Z,100564.44
2022-09-27T18:49:10.743Z,100574.09
2022-09-27T18:51:42.111Z,100567.16
2022-09-27T18:54:16.216Z,100569.81
2022-09-27T18:56:43.219Z,100575.06
2022-09-27T18:59:11.051Z,100577.78
2022-09-27T19:01:40.173Z,100580.31
2022-09-27T19:04:08.563Z,100588.19
2022-09-27T19:06:36.833Z,100593.66
2022-09-27T19:09:04.914Z,100598.53
2022-09-27T19:11:34.121Z,100601.59
2022-09-27T19:14:01.879Z,100607.56
2022-09-27T19:16:29.864Z,100608.03
2022-09-27T19:18:57.090Z,100605.94
2022-09-27T19:21:27.161Z,100613.19
2022-09-27T19:23:54.773Z,100621.25
2022-09-27T19:26:24.479Z,100623.13
2022-09-27T19:28:51.846Z,100627.19
2022-09-27T19:31:24.698Z,100620.84
2022-09-27T19:33:57.479Z,100630.69
2022-09-27T19:36:27.208Z,100641.56
2022-09-27T19:38:54.058Z,100642.91
2022-09-27T19:41:20.999Z,100638.03
2022-09-27T19:43:52.511Z,100648.06
2022-09-27T19:46:20.941Z,100650.81
2022-09-27T19:48:49.669Z,100660.75
2022-09-27T19:51:22.657Z,100660.94
2022-09-27T19:53:50.418Z,100663.53
2022-09-27T19:56:18.141Z,100662.81
2022-09-27T19:58:45.739Z,100665.59
2022-09-27T20:01:16.014Z,100663.91
2022-09-27T20:03:44.385Z,100665.59
2022-09-27T20:06:13.642Z,100666.63
2022-09-27T20:08:40.842Z,100667.66
2022-09-27T20:11:13.533Z,100664.31
2022-09-27T20:13:41.395Z,100666.16
2022-09-27T20:16:14.286Z,100659.69
2022-09-27T20:18:44.092Z,100670.75
2022-09-27T20:21:11.756Z,100664.84
2022-09-27T20:23:39.054Z,100674.31
2022-09-27T20:26:11.778Z,100659.59
2022-09-27T20:28:43.090Z,100674.31
2022-09-27T20:31:11.714Z,100675.16
2022-09-27T20:33:41.677Z,100681.31
2022-09-27T20:36:15.893Z,100682.28
2022-09-27T20:38:45.361Z,100678.81
2022-09-27T20:41:14.593Z,100676.28
2022-09-27T20:43:41.489Z,100674.69
2022-09-27T20:46:13.530Z,100674.84
2022-09-27T20:48:41.175Z,100682.63
2022-09-27T20:51:08.669Z,100676.56
2022-09-27T20:53:35.719Z,100680.09
2022-09-27T20:56:03.180Z,100678.34
2022-09-27T20:58:32.735Z,100671.41
2022-09-27T21:01:07.032Z,100666.25
2022-09-27T21:03:34.764Z,100680.88
2022-09-27T21:06:02.577Z,100680.00
2022-09-27T21:08:31.483Z,100680.00
2022-09-27T21:11:08.969Z,100681.78
2022-09-27T21:13:38.829Z,100685.47
2022-09-27T21:16:08.508Z,100683.66
2022-09-27T21:18:36.865Z,100687.22
2022-09-27T21:21:08.929Z,100683.00
2022-09-27T21:23:40.794Z,100688.25
2022-09-27T21:26:18.587Z,100687.50
2022-09-27T21:28:52.034Z,100685.72
2022-09-27T21:31:23.216Z,100686.72
2022-09-27T21:33:53.704Z,100684.13
2022-09-27T21:36:22.762Z,100685.81
2022-09-27T21:38:49.703Z,100685.91
2022-09-27T21:41:17.259Z,100697.22
2022-09-27T21:43:45.892Z,100695.56
2022-09-27T21:46:15.894Z,100700.78
2022-09-27T21:48:46.436Z,100696.47
2022-09-27T21:51:17.118Z,100703.50
2022-09-27T21:53:50.565Z,100704.50
2022-09-27T21:56:18.698Z,100700.97
2022-09-27T21:58:45.902Z,100701.88
2022-09-27T22:01:21.431Z,100700.97
2022-09-27T22:03:49.765Z,100703.69
2022-09-27T22:06:19.831Z,100710.72
2022-09-27T22:08:48.014Z,100711.53
2022-09-27T22:11:17.098Z,100708.09
2022-09-27T22:13:44.042Z,100703.75
2022-09-27T22:16:16.662Z,100719.50
2022-09-27T22:18:45.224Z,100711.63
2022-09-27T22:21:15.428Z,100714.44
2022-09-27T22:23:43.190Z,100718.84
2022-09-27T22:26:13.235Z,100711.81
2022-09-27T22:28:40.511Z,100715.56
2022-09-27T22:31:08.799Z,100728.56
2022-09-27T22:33:35.801Z,100720.63
2022-09-27T22:36:02.888Z,100722.50
2022-09-27T22:38:31.123Z,100714.88
2022-09-27T22:41:01.405Z,100729.56
2022-09-27T22:43:32.216Z,100720.03
2022-09-27T22:46:02.315Z,100729.69
2022-09-27T22:48:30.919Z,100723.78
2022-09-27T22:50:59.090Z,100718.69
2022-09-27T22:53:27.937Z,100730.00
2022-09-27T22:56:09.421Z,100735.94
2022-09-27T22:58:37.334Z,100735.19
2022-09-27T23:01:09.022Z,100734.28
2022-09-27T23:03:36.176Z,100730.00
